createdAt,value
2016-04-05T00:00:51.967Z,36.74
2016-04-05T00:01:54.954Z,36.84
2016-04-05T00:02:51.879Z,36.84
2016-04-05T00:03:54.850Z,37.03
2016-04-05T00:04:51.791Z,37.03
2016-04-05T00:05:51.746Z,36.84
2016-04-05T00:06:51.906Z,36.84
2016-04-05T00:07:54.658Z,36.93
2016-04-05T00:08:51.818Z,36.84
2016-04-05T00:09:51.554Z,36.93
2016-04-05T00:10:57.541Z,36.74
2016-04-05T00:11:51.466Z,36.74
2016-04-05T00:12:51.406Z,37.03
2016-04-05T00:13:51.377Z,37.03
2016-04-05T00:14:51.317Z,37.03
2016-04-05T00:15:51.289Z,37.13
2016-04-05T00:16:51.448Z,37.03
2016-04-05T00:17:51.184Z,37.13
2016-04-05T00:18:51.157Z,37.13
2016-04-05T00:19:51.097Z,36.93
2016-04-05T00:20:51.037Z,37.13
2016-04-05T00:21:50.993Z,37.13
2016-04-05T00:22:50.948Z,37.13
2016-04-05T00:23:50.904Z,37.22
2016-04-05T00:24:50.891Z,37.13
2016-04-05T00:25:50.831Z,37.03
2016-04-05T00:26:50.756Z,37.13
2016-04-05T00:27:50.712Z,37.03
2016-04-05T00:28:53.700Z,37.22
2016-04-05T00:29:50.624Z,37.13
2016-04-05T00:30:50.595Z,37.13
2016-04-05T00:31:50.723Z,37.22
2016-04-05T00:32:50.476Z,37.22
2016-04-05T00:33:50.447Z,37.22
2016-04-05T00:34:50.403Z,37.22
2016-04-05T00:35:53.343Z,37.22
2016-04-05T00:36:50.314Z,37.22
2016-04-05T00:37:53.473Z,37.32
2016-04-05T00:38:56.210Z,37.32
2016-04-05T00:39:50.151Z,37.22
2016-04-05T00:40:53.325Z,37.03
2016-04-05T00:41:53.094Z,37.13
2016-04-05T00:42:50.065Z,37.13
2016-04-05T00:43:52.990Z,37.13
2016-04-05T00:44:52.945Z,37.13
2016-04-05T00:45:49.885Z,37.22
2016-04-05T00:46:49.841Z,37.32
2016-04-05T00:47:49.781Z,37.22
2016-04-05T00:48:55.753Z,37.22
2016-04-05T00:49:52.692Z,37.22
2016-04-05T00:50:49.648Z,37.22
2016-04-05T00:51:49.620Z,37.13
2016-04-05T00:52:49.560Z,37.22
2016-04-05T00:53:49.501Z,37.22
2016-04-05T00:54:49.472Z,37.13
2016-04-05T00:55:49.412Z,37.22
2016-04-05T00:56:49.368Z,37.32
2016-04-05T00:57:49.339Z,37.22
2016-04-05T00:58:49.295Z,37.13
2016-04-05T00:59:49.235Z,37.13
2016-04-05T01:00:52.191Z,37.32
2016-04-05T01:01:49.147Z,37.32
2016-04-05T01:02:49.088Z,37.32
2016-04-05T01:03:49.044Z,37.32
2016-04-05T01:04:49.203Z,37.41
2016-04-05T01:05:48.955Z,37.32
2016-04-05T01:06:48.895Z,37.51
2016-04-05T01:07:48.851Z,37.41
2016-04-05T01:08:49.010Z,37.32
2016-04-05T01:09:48.763Z,37.22
2016-04-05T01:10:48.702Z,37.41
2016-04-05T01:11:48.674Z,37.51
2016-04-05T01:12:48.629Z,37.51
2016-04-05T01:13:48.632Z,37.6
2016-04-05T01:14:51.541Z,37.13
2016-04-05T01:15:51.497Z,37.51
2016-04-05T01:16:48.640Z,37.13
2016-04-05T01:17:48.378Z,37.6
2016-04-05T01:18:48.334Z,37.22
2016-04-05T01:19:48.290Z,37.41
2016-04-05T01:20:48.245Z,37.32
2016-04-05T01:21:51.217Z,37.41
2016-04-05T01:22:48.172Z,37.32
2016-04-05T01:23:48.112Z,37.51
2016-04-05T01:24:48.053Z,37.32
2016-04-05T01:25:48.024Z,37.41
2016-04-05T01:26:48.011Z,37.6
2016-04-05T01:27:48.123Z,37.6
2016-04-05T01:28:47.875Z,37.6
2016-04-05T01:29:48.238Z,37.51
2016-04-05T01:30:47.788Z,37.6
2016-04-05T01:31:50.759Z,37.6
2016-04-05T01:32:51.090Z,37.51
2016-04-05T01:33:47.639Z,37.6
2016-04-05T01:34:47.595Z,37.51
2016-04-05T01:35:47.535Z,37.51
2016-04-05T01:36:47.491Z,37.41
2016-04-05T01:37:47.478Z,37.41
2016-04-05T01:38:47.418Z,37.51
2016-04-05T01:39:50.375Z,37.41
2016-04-05T01:40:47.315Z,37.51
2016-04-05T01:41:47.333Z,37.6
2016-04-05T01:42:47.227Z,37.41
2016-04-05T01:43:47.182Z,37.32
2016-04-05T01:44:47.357Z,37.41
2016-04-05T01:45:50.099Z,37.51
2016-04-05T01:46:47.717Z,37.32
2016-04-05T01:47:47.282Z,37.7
2016-04-05T01:48:46.995Z,37.8
2016-04-05T01:49:49.966Z,37.41
2016-04-05T01:50:46.859Z,37.99
2016-04-05T01:51:46.784Z,37.51
2016-04-05T01:52:49.974Z,37.6
2016-04-05T01:53:46.711Z,37.6
2016-04-05T01:54:46.652Z,37.89
2016-04-05T01:55:46.607Z,37.7
2016-04-05T01:56:46.564Z,37.51
2016-04-05T01:57:46.378Z,37.7
2016-04-05T01:58:46.490Z,37.51
2016-04-05T01:59:46.290Z,37.51
2016-04-05T02:00:46.387Z,37.51
2016-04-05T02:01:46.530Z,37.51
2016-04-05T02:02:46.283Z,37.51
2016-04-05T02:03:46.254Z,37.41
2016-04-05T02:04:49.523Z,37.51
2016-04-05T02:05:46.151Z,37.6
2016-04-05T02:06:46.106Z,37.51
2016-04-05T02:07:46.067Z,37.51
2016-04-05T02:08:52.008Z,37.41
2016-04-05T02:09:45.963Z,37.41
2016-04-05T02:10:45.903Z,37.6
2016-04-05T02:11:45.858Z,37.51
2016-04-05T02:12:46.033Z,37.41
2016-04-05T02:13:45.771Z,37.51
2016-04-05T02:14:48.788Z,37.51
2016-04-05T02:15:45.885Z,37.6
2016-04-05T02:16:48.637Z,37.99
2016-04-05T02:17:45.593Z,37.51
2016-04-05T02:18:54.534Z,37.7
2016-04-05T02:19:48.709Z,37.7
2016-04-05T02:20:45.446Z,37.89
2016-04-05T02:21:45.401Z,37.89
2016-04-05T02:22:45.342Z,37.89
2016-04-05T02:23:45.298Z,37.99
2016-04-05T02:24:48.284Z,38.09
2016-04-05T02:25:45.193Z,38.18
2016-04-05T02:26:45.180Z,38.18
2016-04-05T02:27:45.120Z,37.99
2016-04-05T02:28:48.092Z,38.18
2016-04-05T02:29:45.063Z,38.18
2016-04-05T02:30:45.035Z,37.99
2016-04-05T02:31:47.944Z,37.99
2016-04-05T02:32:44.897Z,37.89
2016-04-05T02:33:44.837Z,37.99
2016-04-05T02:34:44.792Z,37.89
2016-04-05T02:35:44.749Z,37.89
2016-04-05T02:36:47.708Z,37.89
2016-04-05T02:37:44.661Z,37.89
2016-04-05T02:38:44.600Z,37.8
2016-04-05T02:39:44.556Z,37.8
2016-04-05T02:40:44.512Z,38.18
2016-04-05T02:41:44.452Z,38.28
2016-04-05T02:42:44.424Z,38.09
2016-04-05T02:43:44.613Z,38.18
2016-04-05T02:44:44.367Z,38.18
2016-04-05T02:45:44.275Z,38.18
2016-04-05T02:46:47.411Z,38.37
2016-04-05T02:47:44.161Z,38.09
2016-04-05T02:48:44.291Z,38.37
2016-04-05T02:49:44.031Z,38.09
2016-04-05T02:50:43.975Z,38.37
2016-04-05T02:51:44.442Z,38.37
2016-04-05T02:52:46.893Z,38.37
2016-04-05T02:53:43.829Z,38.28
2016-04-05T02:54:43.764Z,38.47
2016-04-05T02:55:46.732Z,38.37
2016-04-05T02:56:43.671Z,38.18
2016-04-05T02:57:43.625Z,38.66
2016-04-05T02:58:43.579Z,38.37
2016-04-05T02:59:43.517Z,38.18
2016-04-05T03:00:43.690Z,38.47
2016-04-05T03:01:46.489Z,38.28
2016-04-05T03:02:43.429Z,38.28
2016-04-05T03:03:46.353Z,38.18
2016-04-05T03:04:43.495Z,38.18
2016-04-05T03:05:46.247Z,38.47
2016-04-05T03:06:46.391Z,38.76
2016-04-05T03:07:43.158Z,38.37
2016-04-05T03:08:43.615Z,38.37
2016-04-05T03:09:43.055Z,38.28
2016-04-05T03:10:43.011Z,38.28
2016-04-05T03:11:43.170Z,38.28
2016-04-05T03:12:45.922Z,38.18
2016-04-05T03:13:42.879Z,38.18
2016-04-05T03:14:42.819Z,38.09
2016-04-05T03:15:42.790Z,38.09
2016-04-05T03:16:42.730Z,38.28
2016-04-05T03:17:42.718Z,38.37
2016-04-05T03:18:42.657Z,38.37
2016-04-05T03:19:42.598Z,38.09
2016-04-05T03:20:45.740Z,38.56
2016-04-05T03:21:42.509Z,38.28
2016-04-05T03:22:42.434Z,38.37
2016-04-05T03:23:42.406Z,38.37
2016-04-05T03:24:42.392Z,38.37
2016-04-05T03:25:42.332Z,38.37
2016-04-05T03:26:42.257Z,38.37
2016-04-05T03:27:42.213Z,38.37
2016-04-05T03:28:42.215Z,38.37
2016-04-05T03:29:42.126Z,38.56
2016-04-05T03:30:42.096Z,38.47
2016-04-05T03:31:42.037Z,38.18
2016-04-05T03:32:41.837Z,38.47
2016-04-05T03:33:41.933Z,38.66
2016-04-05T03:34:41.904Z,38.66
2016-04-05T03:35:41.842Z,38.76
2016-04-05T03:36:41.813Z,38.66
2016-04-05T03:37:41.738Z,39.14
2016-04-05T03:38:41.693Z,38.95
2016-04-05T03:39:41.869Z,39.04
2016-04-05T03:40:44.667Z,39.04
2016-04-05T03:41:41.577Z,38.95
2016-04-05T03:42:41.516Z,39.04
2016-04-05T03:43:41.488Z,38.85
2016-04-05T03:44:41.413Z,38.85
2016-04-05T03:45:41.385Z,38.76
2016-04-05T03:46:44.324Z,39.04
2016-04-05T03:47:41.296Z,38.85
2016-04-05T03:48:41.236Z,38.85
2016-04-05T03:49:41.192Z,38.85
2016-04-05T03:50:41.335Z,38.85
2016-04-05T03:51:41.104Z,39.14
2016-04-05T03:52:41.043Z,39.14
2016-04-05T03:53:40.999Z,39.43
2016-04-05T03:54:40.955Z,39.04
2016-04-05T03:55:40.912Z,39.43
2016-04-05T03:56:44.086Z,39.14
2016-04-05T03:57:40.823Z,39.33
2016-04-05T03:58:41.373Z,39.33
2016-04-05T03:59:40.734Z,39.14
2016-04-05T04:00:40.690Z,39.04
2016-04-05T04:01:40.630Z,39.14
2016-04-05T04:02:40.586Z,39.33
2016-04-05T04:03:40.839Z,39.62
2016-04-05T04:04:40.481Z,39.62
2016-04-05T04:05:40.453Z,39.62
2016-04-05T04:06:43.409Z,39.43
2016-04-05T04:07:43.365Z,39.43
2016-04-05T04:08:43.337Z,39.53
2016-04-05T04:09:40.261Z,39.62
2016-04-05T04:10:40.467Z,39.91
2016-04-05T04:11:40.158Z,40
2016-04-05T04:12:40.114Z,39.14
2016-04-05T04:13:40.256Z,39.14
2016-04-05T04:14:40.025Z,39.04
2016-04-05T04:15:39.980Z,40
2016-04-05T04:16:39.936Z,39.53
2016-04-05T04:17:39.924Z,39.72
2016-04-05T04:18:39.848Z,39.72
2016-04-05T04:19:39.788Z,39.72
2016-04-05T04:20:39.729Z,39.23
2016-04-05T04:21:39.699Z,39.33
2016-04-05T04:22:40.046Z,39.33
2016-04-05T04:23:39.611Z,39.33
2016-04-05T04:24:39.567Z,39.14
2016-04-05T04:25:39.507Z,39.23
2016-04-05T04:26:39.463Z,39.81
2016-04-05T04:27:42.435Z,39.53
2016-04-05T04:28:39.359Z,39.14
2016-04-05T04:29:39.346Z,39.14
2016-04-05T04:30:39.286Z,39.14
2016-04-05T04:31:39.633Z,39.62
2016-04-05T04:32:39.198Z,39.04
2016-04-05T04:33:42.342Z,39.33
2016-04-05T04:34:39.095Z,39.23
2016-04-05T04:35:42.050Z,39.14
2016-04-05T04:36:39.052Z,39.33
2016-04-05T04:37:38.946Z,39.33
2016-04-05T04:38:38.902Z,39.53
2016-04-05T04:39:38.842Z,39.62
2016-04-05T04:40:38.829Z,39.62
2016-04-05T04:41:38.769Z,40
2016-04-05T04:42:41.709Z,40
2016-04-05T04:43:41.681Z,39.62
2016-04-05T04:44:38.605Z,40.1
2016-04-05T04:45:41.811Z,39.62
2016-04-05T04:46:38.533Z,40.1
2016-04-05T04:47:38.489Z,40.1
2016-04-05T04:48:38.725Z,40
2016-04-05T04:49:38.588Z,40.29
2016-04-05T04:50:41.324Z,39.91
2016-04-05T04:51:38.312Z,40
2016-04-05T04:52:41.268Z,40
2016-04-05T04:53:41.207Z,40
2016-04-05T04:54:38.180Z,40.1
2016-04-05T04:55:38.104Z,39.81
2016-04-05T04:56:38.075Z,40.29
2016-04-05T04:57:41.000Z,40
2016-04-05T04:58:37.971Z,40.1
2016-04-05T04:59:37.943Z,40
2016-04-05T05:00:37.867Z,40
2016-04-05T05:01:40.823Z,40.29
2016-04-05T05:02:37.779Z,40.2
2016-04-05T05:03:37.734Z,39.91
2016-04-05T05:04:37.690Z,40.2
2016-04-05T05:05:37.631Z,39.81
2016-04-05T05:06:37.586Z,40.2
2016-04-05T05:07:37.558Z,40.39
2016-04-05T05:08:37.326Z,40.39
2016-04-05T05:09:37.454Z,40.29
2016-04-05T05:10:37.394Z,40.39
2016-04-05T05:11:37.366Z,40.29
2016-04-05T05:12:37.306Z,40.29
2016-04-05T05:13:37.261Z,40.29
2016-04-05T05:14:37.217Z,40.39
2016-04-05T05:15:37.236Z,40.1
2016-04-05T05:16:40.442Z,40.2
2016-04-05T05:17:37.100Z,40.39
2016-04-05T05:18:37.040Z,40.39
2016-04-05T05:19:36.997Z,40.58
2016-04-05T05:20:39.936Z,40.39
2016-04-05T05:21:36.892Z,40.39
2016-04-05T05:22:39.864Z,40.39
2016-04-05T05:23:36.804Z,40.1
2016-04-05T05:24:37.166Z,40.39
2016-04-05T05:25:36.732Z,40.29
2016-04-05T05:26:39.671Z,40.29
2016-04-05T05:27:36.612Z,39.81
2016-04-05T05:28:36.583Z,39.91
2016-04-05T05:29:39.524Z,40.2
2016-04-05T05:30:36.479Z,40
2016-04-05T05:31:36.420Z,39.91
2016-04-05T05:32:36.375Z,40
2016-04-05T05:33:36.331Z,39.81
2016-04-05T05:34:36.303Z,40
2016-04-05T05:35:36.226Z,40.1
2016-04-05T05:36:36.229Z,40
2016-04-05T05:37:36.139Z,40.2
2016-04-05T05:38:36.297Z,39.72
2016-04-05T05:39:36.051Z,40.29
2016-04-05T05:40:36.006Z,40
2016-04-05T05:41:35.992Z,40.2
2016-04-05T05:42:35.903Z,40.29
2016-04-05T05:43:35.858Z,39.81
2016-04-05T05:44:35.814Z,40.2
2016-04-05T05:45:35.754Z,40.1
2016-04-05T05:46:35.741Z,40.1
2016-04-05T05:47:38.697Z,40.1
2016-04-05T05:48:38.636Z,40.39
2016-04-05T05:49:35.593Z,40
2016-04-05T05:50:35.735Z,40.29
2016-04-05T05:51:35.691Z,40.1
2016-04-05T05:52:35.444Z,40.29
2016-04-05T05:53:35.400Z,40.39
2016-04-05T05:54:35.341Z,40.39
2016-04-05T05:55:38.327Z,40.2
2016-04-05T05:56:35.143Z,40.29
2016-04-05T05:57:35.208Z,40.39
2016-04-05T05:58:35.163Z,40.48
2016-04-05T05:59:35.135Z,40.39
2016-04-05T06:00:35.576Z,40.58
2016-04-05T06:01:35.032Z,40.39
2016-04-05T06:02:34.987Z,40.48
2016-04-05T06:03:34.942Z,40.39
2016-04-05T06:04:34.930Z,40.58
2016-04-05T06:05:34.932Z,40.48
2016-04-05T06:06:34.809Z,40.58
2016-04-05T06:07:34.767Z,40.77
2016-04-05T06:08:34.706Z,40.87
2016-04-05T06:09:34.662Z,41.16
2016-04-05T06:10:34.806Z,41.06
2016-04-05T06:11:34.573Z,41.06
2016-04-05T06:12:34.514Z,40.48
2016-04-05T06:13:34.470Z,40.39
2016-04-05T06:14:37.425Z,41.06
2016-04-05T06:15:34.381Z,41.16
2016-04-05T06:16:34.337Z,40.87
2016-04-05T06:17:34.277Z,41.06
2016-04-05T06:18:34.249Z,40.87
2016-04-05T06:19:34.205Z,41.06
2016-04-05T06:20:37.144Z,40.77
2016-04-05T06:21:37.116Z,40.29
2016-04-05T06:22:37.088Z,40.29
2016-04-05T06:23:34.013Z,40.58
2016-04-05T06:24:36.969Z,40.39
2016-04-05T06:25:37.127Z,40.39
2016-04-05T06:26:34.067Z,40.39
2016-04-05T06:27:33.821Z,40.39
2016-04-05T06:28:33.760Z,40.29
2016-04-05T06:29:33.715Z,41.25
2016-04-05T06:30:33.672Z,41.25
2016-04-05T06:31:36.612Z,40.39
2016-04-05T06:32:33.568Z,40.77
2016-04-05T06:33:33.539Z,40.77
2016-04-05T06:34:33.479Z,40.58
2016-04-05T06:35:33.467Z,40.58
2016-04-05T06:36:36.406Z,40.58
2016-04-05T06:37:33.362Z,41.16
2016-04-05T06:38:33.506Z,40.58
2016-04-05T06:39:33.243Z,40.2
2016-04-05T06:40:33.230Z,40.29
2016-04-05T06:41:33.170Z,40.39
2016-04-05T06:42:39.126Z,40.48
2016-04-05T06:43:33.081Z,40.29
2016-04-05T06:44:33.006Z,40.58
2016-04-05T06:45:32.978Z,40.39
2016-04-05T06:46:33.122Z,40.58
2016-04-05T06:47:32.889Z,40.29
2016-04-05T06:48:32.844Z,40.48
2016-04-05T06:49:32.786Z,40.39
2016-04-05T06:50:35.741Z,40.48
2016-04-05T06:51:32.697Z,40.39
2016-04-05T06:52:32.653Z,40.29
2016-04-05T06:53:32.640Z,40.39
2016-04-05T06:54:32.877Z,40.48
2016-04-05T06:55:32.552Z,40.77
2016-04-05T06:56:32.460Z,40.77
2016-04-05T06:57:35.447Z,41.25
2016-04-05T06:58:32.372Z,41.16
2016-04-05T06:59:32.374Z,41.06
2016-04-05T07:00:35.299Z,41.06
2016-04-05T07:01:32.224Z,40.58
2016-04-05T07:02:32.195Z,40.39
2016-04-05T07:03:35.354Z,40.77
2016-04-05T07:04:32.138Z,41.16
2016-04-05T07:05:32.062Z,41.25
2016-04-05T07:06:32.003Z,41.06
2016-04-05T07:07:31.945Z,40.96
2016-04-05T07:08:31.900Z,40.96
2016-04-05T07:09:31.856Z,41.25
2016-04-05T07:10:31.812Z,41.35
2016-04-05T07:11:34.799Z,41.25
2016-04-05T07:12:31.739Z,41.16
2016-04-05T07:13:31.914Z,41.44
2016-04-05T07:14:31.652Z,41.16
2016-04-05T07:15:31.685Z,41.16
2016-04-05T07:16:31.594Z,41.35
2016-04-05T07:17:31.488Z,41.44
2016-04-05T07:18:31.428Z,41.25
2016-04-05T07:19:31.415Z,41.25
2016-04-05T07:20:31.371Z,41.16
2016-04-05T07:21:31.327Z,41.16
2016-04-05T07:22:31.266Z,41.16
2016-04-05T07:23:31.441Z,41.06
2016-04-05T07:24:31.179Z,41.35
2016-04-05T07:25:31.149Z,41.35
2016-04-05T07:26:31.074Z,41.25
2016-04-05T07:27:37.061Z,41.25
2016-04-05T07:28:30.985Z,41.35
2016-04-05T07:29:33.942Z,41.25
2016-04-05T07:30:30.881Z,41.35
2016-04-05T07:31:30.901Z,41.16
2016-04-05T07:32:30.793Z,41.16
2016-04-05T07:33:30.811Z,41.25
2016-04-05T07:34:30.705Z,41.16
2016-04-05T07:35:30.645Z,41.44
2016-04-05T07:36:30.632Z,41.35
2016-04-05T07:37:30.556Z,41.16
2016-04-05T07:38:30.545Z,41.35
2016-04-05T07:39:30.469Z,41.16
2016-04-05T07:40:30.424Z,41.25
2016-04-05T07:41:30.505Z,41.54
2016-04-05T07:42:30.336Z,41.25
2016-04-05T07:43:30.495Z,41.06
2016-04-05T07:44:30.247Z,41.16
2016-04-05T07:45:30.266Z,41.06
2016-04-05T07:46:30.175Z,41.63
2016-04-05T07:47:30.099Z,41.35
2016-04-05T07:48:30.071Z,41.44
2016-04-05T07:49:30.136Z,41.44
2016-04-05T07:50:29.967Z,41.35
2016-04-05T07:51:29.954Z,41.06
2016-04-05T07:52:29.879Z,41.16
2016-04-05T07:53:29.819Z,41.25
2016-04-05T07:54:29.821Z,41.16
2016-04-05T07:55:29.730Z,41.16
2016-04-05T07:56:29.686Z,41.06
2016-04-05T07:57:29.610Z,41.35
2016-04-05T07:58:29.613Z,41.06
2016-04-05T07:59:29.538Z,41.16
2016-04-05T08:00:29.493Z,41.25
2016-04-05T08:01:29.449Z,41.25
2016-04-05T08:02:29.405Z,41.06
2016-04-05T08:03:29.362Z,41.25
2016-04-05T08:04:29.411Z,41.16
2016-04-05T08:05:29.289Z,41.16
2016-04-05T08:06:29.292Z,41.16
2016-04-05T08:07:29.028Z,41.16
2016-04-05T08:08:29.390Z,41.35
2016-04-05T08:09:29.440Z,41.25
2016-04-05T08:10:29.036Z,41.25
2016-04-05T08:11:29.023Z,41.16
2016-04-05T08:12:29.135Z,41.25
2016-04-05T08:13:28.904Z,41.25
2016-04-05T08:14:28.859Z,41.54
2016-04-05T08:15:28.878Z,41.25
2016-04-05T08:16:28.786Z,41.35
2016-04-05T08:17:28.758Z,41.35
2016-04-05T08:18:31.683Z,41.35
2016-04-05T08:19:28.622Z,41.63
2016-04-05T08:20:31.580Z,41.44
2016-04-05T08:21:28.378Z,41.63
2016-04-05T08:22:28.490Z,41.16
2016-04-05T08:23:28.415Z,41.44
2016-04-05T08:24:28.401Z,41.63
2016-04-05T08:25:28.343Z,41.63
2016-04-05T08:26:28.282Z,41.35
2016-04-05T08:27:28.238Z,41.73
2016-04-05T08:28:28.194Z,41.73
2016-04-05T08:29:28.337Z,41.73
2016-04-05T08:30:28.090Z,41.83
2016-04-05T08:31:31.280Z,41.93
2016-04-05T08:32:28.001Z,41.63
2016-04-05T08:33:27.989Z,41.63
2016-04-05T08:34:27.898Z,42.11
2016-04-05T08:35:27.885Z,42.11
2016-04-05T08:36:27.825Z,41.54
2016-04-05T08:37:27.765Z,42.6
2016-04-05T08:38:27.720Z,42.5
2016-04-05T08:39:30.661Z,42.02
2016-04-05T08:40:30.633Z,41.93
2016-04-05T08:41:27.572Z,42.21
2016-04-05T08:42:27.529Z,41.93
2016-04-05T08:43:27.484Z,42.21
2016-04-05T08:44:27.471Z,42.5
2016-04-05T08:45:27.380Z,42.5
2016-04-05T08:46:27.367Z,42.5
2016-04-05T08:47:27.308Z,42.5
2016-04-05T08:48:27.388Z,42.5
2016-04-05T08:49:27.204Z,42.4
2016-04-05T08:50:27.175Z,42.3
2016-04-05T08:51:27.146Z,42.3
2016-04-05T08:52:27.258Z,42.3
2016-04-05T08:53:27.026Z,42.02
2016-04-05T08:54:27.014Z,42.3
2016-04-05T08:55:29.954Z,41.93
2016-04-05T08:56:26.879Z,42.21
2016-04-05T08:57:26.897Z,42.3
2016-04-05T08:58:26.852Z,42.5
2016-04-05T08:59:26.793Z,42.11
2016-04-05T09:00:26.718Z,41.54
2016-04-05T09:01:26.657Z,41.54
2016-04-05T09:02:26.629Z,41.54
2016-04-05T09:03:26.554Z,41.63
2016-04-05T09:04:26.526Z,41.83
2016-04-05T09:05:26.465Z,41.54
2016-04-05T09:06:26.437Z,41.73
2016-04-05T09:07:26.376Z,41.54
2016-04-05T09:08:26.317Z,41.73
2016-04-05T09:09:29.289Z,41.54
2016-04-05T09:10:26.249Z,41.83
2016-04-05T09:11:26.221Z,42.02
2016-04-05T09:12:26.192Z,41.93
2016-04-05T09:13:26.383Z,41.93
2016-04-05T09:14:29.041Z,42.02
2016-04-05T09:15:26.044Z,41.54
2016-04-05T09:16:25.969Z,42.4
2016-04-05T09:17:26.111Z,42.6
2016-04-05T09:18:25.864Z,42.3
2016-04-05T09:19:25.805Z,42.3
2016-04-05T09:20:25.777Z,42.21
2016-04-05T09:21:25.747Z,42.6
2016-04-05T09:22:25.985Z,42.3
2016-04-05T09:23:28.628Z,41.83
2016-04-05T09:24:25.584Z,42.3
2016-04-05T09:25:25.540Z,41.93
2016-04-05T09:26:25.526Z,42.6
2016-04-05T09:27:25.483Z,42.6
2016-04-05T09:28:25.485Z,42.79
2016-04-05T09:29:25.363Z,42.6
2016-04-05T09:30:25.334Z,42.5
2016-04-05T09:31:25.259Z,42.4
2016-04-05T09:32:25.606Z,42.79
2016-04-05T09:33:28.186Z,42.69
2016-04-05T09:34:25.126Z,42.5
2016-04-05T09:35:25.395Z,42.69
2016-04-05T09:36:25.085Z,42.69
2016-04-05T09:37:25.026Z,42.6
2016-04-05T09:38:24.950Z,42.5
2016-04-05T09:39:25.281Z,42.69
2016-04-05T09:40:24.877Z,42.69
2016-04-05T09:41:24.786Z,42.6
2016-04-05T09:42:24.757Z,42.6
2016-04-05T09:43:24.698Z,42.6
2016-04-05T09:44:24.653Z,42.69
2016-04-05T09:45:24.608Z,42.69
2016-04-05T09:46:24.596Z,42.79
2016-04-05T09:47:24.505Z,42.69
2016-04-05T09:48:24.491Z,42.79
2016-04-05T09:49:25.276Z,42.69
2016-04-05T09:50:24.858Z,42.88
2016-04-05T09:51:24.313Z,42.98
2016-04-05T09:52:24.299Z,42.69
2016-04-05T09:53:24.850Z,42.69
2016-04-05T09:54:24.227Z,42.6
2016-04-05T09:55:24.199Z,42.4
2016-04-05T09:56:25.060Z,42.79
2016-04-05T09:57:27.032Z,42.6
2016-04-05T09:58:23.988Z,42.98
2016-04-05T09:59:23.959Z,42.88
2016-04-05T10:00:23.915Z,42.98
2016-04-05T10:01:23.854Z,42.88
2016-04-05T10:02:23.812Z,42.79
2016-04-05T10:03:26.829Z,42.88
2016-04-05T10:04:24.067Z,42.88
2016-04-05T10:05:23.881Z,42.69
2016-04-05T10:06:23.618Z,42.88
2016-04-05T10:07:23.574Z,42.79
2016-04-05T10:08:23.592Z,42.88
2016-04-05T10:09:23.486Z,42.98
2016-04-05T10:10:23.503Z,42.79
2016-04-05T10:11:23.397Z,42.69
2016-04-05T10:12:23.494Z,42.5
2016-04-05T10:13:23.325Z,42.4
2016-04-05T10:14:23.328Z,42.6
2016-04-05T10:15:23.190Z,42.4
2016-04-05T10:16:23.145Z,42.5
2016-04-05T10:17:23.273Z,42.5
2016-04-05T10:18:23.058Z,42.69
2016-04-05T10:19:23.013Z,42.79
2016-04-05T10:20:22.969Z,42.4
2016-04-05T10:21:22.924Z,42.5
2016-04-05T10:22:22.896Z,42.6
2016-04-05T10:23:22.664Z,42.5
2016-04-05T10:24:22.791Z,42.69
2016-04-05T10:25:22.749Z,42.69
2016-04-05T10:26:22.688Z,42.69
2016-04-05T10:27:22.894Z,42.5
2016-04-05T10:28:22.600Z,42.69
2016-04-05T10:29:22.602Z,42.79
2016-04-05T10:30:22.496Z,42.98
2016-04-05T10:31:22.451Z,42.6
2016-04-05T10:32:22.470Z,42.4
2016-04-05T10:33:22.379Z,42.5
2016-04-05T10:34:22.319Z,42.79
2016-04-05T10:35:22.462Z,42.79
2016-04-05T10:36:22.215Z,42.6
2016-04-05T10:37:22.201Z,42.6
2016-04-05T10:38:32.829Z,42.5
2016-04-05T10:39:22.145Z,42.6
2016-04-05T10:40:25.053Z,42.4
2016-04-05T10:41:25.025Z,42.79
2016-04-05T10:42:21.950Z,42.6
2016-04-05T10:43:21.921Z,42.88
2016-04-05T10:44:21.846Z,42.79
2016-04-05T10:45:24.817Z,43.07
2016-04-05T10:46:21.773Z,42.79
2016-04-05T10:47:21.697Z,42.79
2016-04-05T10:48:21.669Z,43.07
2016-04-05T10:49:21.609Z,42.79
2016-04-05T10:50:21.643Z,42.69
2016-04-05T10:51:21.552Z,43.36
2016-04-05T10:52:21.492Z,42.98
2016-04-05T10:53:24.448Z,42.98
2016-04-05T10:54:21.466Z,42.98
2016-04-05T10:55:21.343Z,42.69
2016-04-05T10:56:21.285Z,42.88
2016-04-05T10:57:21.240Z,42.69
2016-04-05T10:58:21.196Z,43.07
2016-04-05T10:59:21.152Z,43.17
2016-04-05T11:00:21.155Z,43.07
2016-04-05T11:01:21.563Z,43.07
2016-04-05T11:02:21.019Z,42.88
2016-04-05T11:03:20.959Z,43.27
2016-04-05T11:04:20.916Z,43.27
2016-04-05T11:05:20.887Z,43.07
2016-04-05T11:06:20.843Z,43.07
2016-04-05T11:07:20.783Z,43.36
2016-04-05T11:08:20.761Z,43.36
2016-04-05T11:09:20.755Z,43.27
2016-04-05T11:10:20.867Z,43.17
2016-04-05T11:11:20.635Z,43.36
2016-04-05T11:12:20.559Z,43.36
2016-04-05T11:13:20.468Z,43.27
2016-04-05T11:14:20.425Z,43.07
2016-04-05T11:15:20.412Z,42.79
2016-04-05T11:16:25.274Z,42.98
2016-04-05T11:17:20.292Z,42.79
2016-04-05T11:18:20.232Z,43.36
2016-04-05T11:19:20.235Z,43.07
2016-04-05T11:20:20.159Z,43.17
2016-04-05T11:21:20.131Z,42.79
2016-04-05T11:22:20.103Z,42.98
2016-04-05T11:23:20.215Z,42.79
2016-04-05T11:24:19.998Z,42.69
2016-04-05T11:25:19.907Z,42.88
2016-04-05T11:26:19.894Z,42.6
2016-04-05T11:27:19.835Z,42.98
2016-04-05T11:28:19.806Z,42.98
2016-04-05T11:29:19.716Z,42.88
2016-04-05T11:30:19.718Z,42.88
2016-04-05T11:31:19.658Z,42.79
2016-04-05T11:32:19.739Z,42.79
2016-04-05T11:33:22.585Z,42.88
2016-04-05T11:34:19.510Z,42.79
2016-04-05T11:35:22.482Z,42.69
2016-04-05T11:36:19.405Z,42.98
2016-04-05T11:37:19.362Z,42.88
2016-04-05T11:38:22.348Z,42.79
2016-04-05T11:39:22.320Z,42.88
2016-04-05T11:40:19.245Z,42.69
2016-04-05T11:41:19.247Z,43.07
2016-04-05T11:42:19.156Z,42.69
2016-04-05T11:43:19.080Z,43.07
2016-04-05T11:44:19.036Z,43.07
2016-04-05T11:45:19.039Z,43.07
2016-04-05T11:46:18.838Z,42.88
2016-04-05T11:47:18.920Z,42.98
2016-04-05T11:48:21.859Z,43.07
2016-04-05T11:49:18.815Z,42.79
2016-04-05T11:50:18.755Z,42.88
2016-04-05T11:51:18.912Z,42.79
2016-04-05T11:52:18.688Z,42.98
2016-04-05T11:53:18.619Z,42.98
2016-04-05T11:54:18.550Z,43.07
2016-04-05T11:55:18.498Z,43.07
2016-04-05T11:56:18.477Z,42.79
2016-04-05T11:57:18.446Z,43.17
2016-04-05T11:58:21.398Z,43.07
2016-04-05T11:59:21.506Z,42.98
2016-04-05T12:00:18.288Z,43.27
2016-04-05T12:01:18.756Z,43.36
2016-04-05T12:02:18.383Z,43.07
2016-04-05T12:03:21.291Z,42.88
2016-04-05T12:04:18.074Z,42.6
2016-04-05T12:05:18.012Z,42.88
2016-04-05T12:06:18.015Z,42.88
2016-04-05T12:07:17.923Z,42.88
2016-04-05T12:08:17.988Z,42.79
2016-04-05T12:09:17.802Z,42.6
2016-04-05T12:10:17.758Z,42.79
2016-04-05T12:11:17.745Z,43.17
2016-04-05T12:12:17.732Z,42.88
2016-04-05T12:13:17.625Z,43.07
2016-04-05T12:14:17.628Z,42.98
2016-04-05T12:15:20.881Z,43.27
2016-04-05T12:16:17.617Z,43.17
2016-04-05T12:17:17.448Z,42.98
2016-04-05T12:18:17.420Z,42.88
2016-04-05T12:19:21.736Z,43.36
2016-04-05T12:20:17.331Z,42.98
2016-04-05T12:21:17.569Z,42.88
2016-04-05T12:22:17.290Z,43.36
2016-04-05T12:23:17.183Z,43.07
2016-04-05T12:24:17.124Z,43.27
2016-04-05T12:25:17.236Z,43.27
2016-04-05T12:26:17.035Z,42.88
2016-04-05T12:27:17.007Z,42.88
2016-04-05T12:28:16.931Z,43.07
2016-04-05T12:29:16.872Z,43.36
2016-04-05T12:30:20.218Z,43.17
2016-04-05T12:31:16.799Z,43.46
2016-04-05T12:32:18.738Z,43.17
2016-04-05T12:33:16.898Z,42.88
2016-04-05T12:34:20.025Z,42.6
2016-04-05T12:35:16.621Z,42.69
2016-04-05T12:36:16.593Z,42.88
2016-04-05T12:37:16.518Z,42.79
2016-04-05T12:38:16.490Z,42.98
2016-04-05T12:39:16.430Z,42.98
2016-04-05T12:40:16.448Z,42.98
2016-04-05T12:41:16.653Z,42.88
2016-04-05T12:42:16.297Z,43.27
2016-04-05T12:43:16.253Z,42.79
2016-04-05T12:44:16.178Z,42.98
2016-04-05T12:45:16.134Z,43.07
2016-04-05T12:46:16.151Z,43.36
2016-04-05T12:47:16.060Z,43.36
2016-04-05T12:48:15.986Z,42.88
2016-04-05T12:49:16.004Z,42.88
2016-04-05T12:50:15.928Z,43.17
2016-04-05T12:51:15.884Z,43.17
2016-04-05T12:52:15.825Z,42.88
2016-04-05T12:53:15.780Z,43.27
2016-04-05T12:54:15.705Z,42.79
2016-04-05T12:55:15.660Z,43.27
2016-04-05T12:56:15.678Z,42.88
2016-04-05T12:57:15.587Z,43.27